createdAt,value
2022-10-24T00:00:13.976Z,30.35
2022-10-24T00:02:44.190Z,27.52
2022-10-24T00:05:17.506Z,29.02
2022-10-24T00:07:47.520Z,28.45
2022-10-24T00:10:18.557Z,27.45
2022-10-24T00:12:48.591Z,29.50
2022-10-24T00:15:18.943Z,30.10
2022-10-24T00:17:48.839Z,26.75
2022-10-24T00:20:18.761Z,29.50
2022-10-24T00:22:48.561Z,34.83
2022-10-24T00:25:18.780Z,33.00
2022-10-24T00:27:48.699Z,32.90
2022-10-24T00:30:18.833Z,28.33
2022-10-24T00:32:48.693Z,32.10
2022-10-24T00:35:18.592Z,33.15
2022-10-24T00:37:48.505Z,27.98
2022-10-24T00:40:20.437Z,29.75
2022-10-24T00:42:51.187Z,26.05
2022-10-24T00:45:46.214Z,24.77
2022-10-24T00:48:30.401Z,22.20
2022-10-24T00:51:23.259Z,26.00
2022-10-24T00:56:31.931Z,26.38
2022-10-24T00:59:04.327Z,23.35
2022-10-24T01:01:35.912Z,26.80
2022-10-24T01:04:06.371Z,24.80
2022-10-24T01:07:04.311Z,28.42
2022-10-24T01:10:02.809Z,25.95
2022-10-24T01:13:01.742Z,29.13
2022-10-24T01:15:57.859Z,32.25
2022-10-24T01:18:50.477Z,23.58
2022-10-24T01:21:42.196Z,23.08
2022-10-24T01:24:51.151Z,28.65
2022-10-24T01:27:41.481Z,24.15
2022-10-24T01:30:16.510Z,24.10
2022-10-24T01:33:06.374Z,24.77
2022-10-24T01:35:51.920Z,20.83
2022-10-24T01:38:44.036Z,84.90
2022-10-24T01:41:22.692Z,21.13
2022-10-24T01:44:06.719Z,25.42
2022-10-24T01:46:42.029Z,23.17
2022-10-24T01:49:22.422Z,24.80
2022-10-24T01:51:56.756Z,22.60
2022-10-24T01:54:26.832Z,25.15
2022-10-24T01:56:56.797Z,23.92
2022-10-24T01:59:47.456Z,25.55
2022-10-24T02:02:42.428Z,26.05
2022-10-24T02:05:23.360Z,23.20
2022-10-24T02:07:58.379Z,24.23
2022-10-24T02:10:39.738Z,26.20
2022-10-24T02:13:22.954Z,24.92
2022-10-24T02:15:56.397Z,22.13
2022-10-24T02:18:26.322Z,20.65
2022-10-24T02:21:35.198Z,24.15
2022-10-24T02:24:27.185Z,24.00
2022-10-24T02:27:35.921Z,22.42
2022-10-24T02:30:11.936Z,23.75
2022-10-24T02:32:46.437Z,24.15
2022-10-24T02:35:19.153Z,26.33
2022-10-24T02:37:53.629Z,24.52
2022-10-24T02:40:25.172Z,21.30
2022-10-24T02:42:58.277Z,20.08
2022-10-24T02:45:29.059Z,20.30
2022-10-24T02:48:04.739Z,22.88
2022-10-24T02:50:35.010Z,20.85
2022-10-24T02:53:04.665Z,18.98
2022-10-24T02:55:34.230Z,24.88
2022-10-24T02:58:03.724Z,20.02
2022-10-24T03:00:33.359Z,21.80
2022-10-24T03:03:03.216Z,21.98
2022-10-24T03:05:32.652Z,22.33
2022-10-24T03:08:02.171Z,18.55
2022-10-24T03:10:32.863Z,25.08
2022-10-24T03:13:03.422Z,20.35
2022-10-24T03:15:33.309Z,20.50
2022-10-24T03:18:03.166Z,23.67
2022-10-24T03:20:33.064Z,20.13
2022-10-24T03:23:03.072Z,35.50
2022-10-24T03:25:33.133Z,19.17
2022-10-24T03:28:03.387Z,20.02
2022-10-24T03:30:33.141Z,18.58
2022-10-24T03:33:02.940Z,22.42
2022-10-24T03:35:32.921Z,19.33
2022-10-24T03:38:02.883Z,26.67
2022-10-24T03:40:32.757Z,21.20
2022-10-24T03:43:03.059Z,23.73
2022-10-24T03:45:32.966Z,25.70
2022-10-24T03:48:02.937Z,19.60
2022-10-24T03:50:33.428Z,19.95
2022-10-24T03:53:04.230Z,24.45
2022-10-24T03:55:34.440Z,22.33
2022-10-24T03:58:04.576Z,22.55
2022-10-24T04:00:40.464Z,19.23
2022-10-24T04:03:11.383Z,23.77
2022-10-24T04:05:42.274Z,23.60
2022-10-24T04:08:12.239Z,16.95
2022-10-24T04:10:42.107Z,17.25
2022-10-24T04:13:12.800Z,20.80
2022-10-24T04:15:42.356Z,18.08
2022-10-24T04:18:11.888Z,18.90
2022-10-24T04:20:41.588Z,18.25
2022-10-24T04:23:11.210Z,21.23
2022-10-24T04:25:42.053Z,16.05
2022-10-24T04:28:11.893Z,18.08
2022-10-24T04:33:10.839Z,15.35
2022-10-24T04:35:40.614Z,18.77
2022-10-24T04:38:10.195Z,18.48
2022-10-24T04:40:39.595Z,19.38
2022-10-24T04:43:09.266Z,18.30
2022-10-24T04:45:38.741Z,15.93
2022-10-24T04:48:08.554Z,16.08
2022-10-24T04:50:38.651Z,14.52
2022-10-24T04:53:08.181Z,20.48
2022-10-24T04:58:08.136Z,18.00
2022-10-24T05:00:37.830Z,18.20
2022-10-24T05:03:07.730Z,23.95
2022-10-24T05:05:37.264Z,18.67
2022-10-24T05:08:07.021Z,18.30
2022-10-24T05:10:36.500Z,15.68
2022-10-24T05:13:06.275Z,16.98
2022-10-24T05:15:36.882Z,14.35
2022-10-24T05:18:06.763Z,16.27
2022-10-24T05:20:36.667Z,18.20
2022-10-24T05:23:06.740Z,16.33
2022-10-24T05:25:36.883Z,19.75
2022-10-24T05:28:06.790Z,15.75
2022-10-24T05:30:36.714Z,16.02
2022-10-24T05:33:06.651Z,15.77
2022-10-24T05:35:36.546Z,14.98
2022-10-24T05:38:06.646Z,16.10
2022-10-24T05:40:36.539Z,15.77
2022-10-24T05:43:06.371Z,15.98
2022-10-24T05:45:37.268Z,18.75
2022-10-24T05:48:07.550Z,13.15
2022-10-24T05:50:38.112Z,15.63
2022-10-24T05:53:10.348Z,13.23
2022-10-24T05:55:40.238Z,13.70
2022-10-24T05:58:10.244Z,14.02
2022-10-24T06:00:40.163Z,16.17
2022-10-24T06:03:11.045Z,16.42
2022-10-24T06:05:40.961Z,14.05
2022-10-24T06:08:11.567Z,19.15
2022-10-24T06:10:41.399Z,18.77
2022-10-24T06:13:11.366Z,15.75
2022-10-24T06:15:42.931Z,14.52
2022-10-24T06:18:12.548Z,13.73
2022-10-24T06:20:42.035Z,13.65
2022-10-24T06:23:11.550Z,20.55
2022-10-24T06:25:44.355Z,15.43
2022-10-24T06:28:16.493Z,13.38
2022-10-24T06:30:46.399Z,16.42
2022-10-24T06:33:16.046Z,11.75
2022-10-24T06:35:45.554Z,14.52
2022-10-24T06:38:15.408Z,18.90
2022-10-24T06:40:44.926Z,18.65
2022-10-24T06:43:14.468Z,13.23
2022-10-24T06:45:44.300Z,17.25
2022-10-24T06:48:13.964Z,18.40
2022-10-24T06:50:43.477Z,13.88
2022-10-24T06:53:13.419Z,21.83
2022-10-24T06:55:43.026Z,15.13
2022-10-24T06:58:12.543Z,19.05
2022-10-24T07:00:42.104Z,16.80
2022-10-24T07:03:17.228Z,16.88
2022-10-24T07:05:47.107Z,17.25
2022-10-24T07:08:16.616Z,14.93
2022-10-24T07:10:46.155Z,16.85
2022-10-24T07:13:16.014Z,15.73
2022-10-24T07:15:46.540Z,12.23
2022-10-24T07:18:17.906Z,15.45
2022-10-24T07:20:48.191Z,16.35
2022-10-24T07:23:18.640Z,17.10
2022-10-24T07:25:48.924Z,17.00
2022-10-24T07:28:18.793Z,16.48
2022-10-24T07:30:48.701Z,16.60
2022-10-24T07:33:18.626Z,13.90
2022-10-24T07:35:48.449Z,18.98
2022-10-24T07:38:18.938Z,13.88
2022-10-24T07:40:49.092Z,15.13
2022-10-24T07:43:19.444Z,18.83
2022-10-24T07:45:52.057Z,13.52
2022-10-24T07:48:21.933Z,16.50
2022-10-24T07:50:51.478Z,16.30
2022-10-24T07:53:20.975Z,15.30
2022-10-24T07:55:50.751Z,15.57
2022-10-24T07:58:20.539Z,17.58
2022-10-24T08:00:50.069Z,16.08
2022-10-24T08:03:19.596Z,16.63
2022-10-24T08:05:49.890Z,12.63
2022-10-24T08:08:34.932Z,19.58
2022-10-24T08:11:11.759Z,17.40
2022-10-24T08:13:41.554Z,16.20
2022-10-24T08:16:13.765Z,19.95
2022-10-24T08:18:43.392Z,15.88
2022-10-24T08:21:14.871Z,16.52
2022-10-24T08:23:48.746Z,19.60
2022-10-24T08:26:22.078Z,16.77
2022-10-24T08:28:52.533Z,14.32
2022-10-24T08:31:25.012Z,14.32
2022-10-24T08:33:56.485Z,14.77
2022-10-24T08:36:30.513Z,13.90
2022-10-24T08:39:01.472Z,14.48
2022-10-24T08:41:41.991Z,15.07
2022-10-24T08:44:37.308Z,13.23
2022-10-24T08:47:33.004Z,14.95
2022-10-24T08:50:15.269Z,16.15
2022-10-24T08:52:57.025Z,16.58
2022-10-24T08:55:49.799Z,15.57
2022-10-24T08:58:28.660Z,16.05
2022-10-24T09:01:02.426Z,14.68
2022-10-24T09:03:57.265Z,17.85
2022-10-24T09:06:31.957Z,15.77
2022-10-24T09:09:22.862Z,16.65
2022-10-24T09:12:17.706Z,14.85
2022-10-24T09:14:52.537Z,15.90
2022-10-24T09:17:38.842Z,15.02
2022-10-24T09:20:32.392Z,16.40
2022-10-24T09:23:06.255Z,17.50
2022-10-24T09:25:38.787Z,16.90
2022-10-24T09:28:14.488Z,15.75
2022-10-24T09:30:44.682Z,20.27
2022-10-24T09:33:29.486Z,14.98
2022-10-24T09:36:02.933Z,14.65
2022-10-24T09:38:38.474Z,16.50
2022-10-24T09:41:28.487Z,14.35
2022-10-24T09:44:02.134Z,17.02
2022-10-24T09:46:46.728Z,13.98
2022-10-24T09:49:25.696Z,14.13
2022-10-24T09:52:20.443Z,13.75
2022-10-24T09:55:08.338Z,14.13
2022-10-24T09:57:43.112Z,17.08
2022-10-24T10:00:36.316Z,15.50
2022-10-24T10:03:24.081Z,15.55
2022-10-24T10:05:58.725Z,14.48
2022-10-24T10:08:34.463Z,17.35
2022-10-24T10:11:14.281Z,16.30
2022-10-24T10:13:56.375Z,17.17
2022-10-24T10:16:29.915Z,13.93
2022-10-24T10:19:17.757Z,19.60
2022-10-24T10:22:01.322Z,15.40
2022-10-24T10:24:47.801Z,14.38
2022-10-24T10:27:42.763Z,18.00
2022-10-24T10:30:23.299Z,15.30
2022-10-24T10:33:22.550Z,17.83
2022-10-24T10:36:31.231Z,18.85
2022-10-24T10:39:31.779Z,17.25
2022-10-24T10:42:15.348Z,16.23
2022-10-24T10:45:13.466Z,20.30
2022-10-24T10:48:22.183Z,17.45
2022-10-24T10:51:28.354Z,20.27
2022-10-24T10:54:21.810Z,14.18
2022-10-24T10:57:05.187Z,17.08
2022-10-24T10:59:54.752Z,18.60
2022-10-24T11:03:03.723Z,24.45
2022-10-24T11:05:54.257Z,18.08
2022-10-24T11:08:59.523Z,19.27
2022-10-24T11:11:43.149Z,20.55
2022-10-24T11:14:37.544Z,23.38
2022-10-24T11:17:27.160Z,22.27
2022-10-24T11:20:09.644Z,31.20
2022-10-24T11:22:50.636Z,45.03
2022-10-24T11:25:44.240Z,49.38
2022-10-24T11:28:42.902Z,33.47
2022-10-24T11:31:32.277Z,30.73
2022-10-24T11:34:33.987Z,28.38
2022-10-24T11:37:12.284Z,26.75
2022-10-24T11:40:00.171Z,39.42
2022-10-24T11:42:36.291Z,46.75
2022-10-24T11:45:20.993Z,58.25
2022-10-24T11:48:23.062Z,64.07
2022-10-24T11:51:00.870Z,75.57
2022-10-24T11:54:06.529Z,69.18
2022-10-24T11:56:58.318Z,60.55
2022-10-24T11:59:27.879Z,53.22
2022-10-24T12:02:31.514Z,47.55
2022-10-24T12:08:37.591Z,42.53
2022-10-24T12:14:23.624Z,36.33
2022-10-24T12:17:32.438Z,35.55
2022-10-24T12:20:03.704Z,34.80
2022-10-24T12:22:41.990Z,40.03
2022-10-24T12:25:40.323Z,34.40
2022-10-24T12:28:25.262Z,37.42
2022-10-24T12:31:34.026Z,39.65
2022-10-24T12:34:32.630Z,35.50
2022-10-24T12:37:37.103Z,33.05
2022-10-24T12:40:45.778Z,39.03
2022-10-24T12:43:25.617Z,32.28
2022-10-24T12:45:55.456Z,32.60
2022-10-24T12:48:37.720Z,31.27
2022-10-24T12:51:28.337Z,27.80
2022-10-24T12:54:18.945Z,31.88
2022-10-24T12:57:23.410Z,29.17
2022-10-24T13:00:02.247Z,31.52
2022-10-24T13:03:01.722Z,32.67
2022-10-24T13:06:04.742Z,29.63
2022-10-24T13:09:13.406Z,32.55
2022-10-24T13:12:22.229Z,28.95
2022-10-24T13:15:30.881Z,32.28
2022-10-24T13:18:26.116Z,34.85
2022-10-24T13:21:19.111Z,28.60
2022-10-24T13:23:51.353Z,32.42
2022-10-24T13:26:48.880Z,36.25
2022-10-24T13:29:57.630Z,39.30
2022-10-24T13:32:36.684Z,37.25
2022-10-24T13:35:07.825Z,34.28
2022-10-24T13:37:48.416Z,35.25
2022-10-24T13:40:34.572Z,37.85
2022-10-24T13:43:16.278Z,31.73
2022-10-24T13:46:03.422Z,38.88
2022-10-24T13:48:37.149Z,34.53
2022-10-24T13:51:30.728Z,39.63
2022-10-24T13:54:25.675Z,37.78
2022-10-24T13:56:58.360Z,36.92
2022-10-24T13:59:38.780Z,32.60
2022-10-24T14:02:16.798Z,34.58
2022-10-24T14:07:27.663Z,33.58
2022-10-24T14:10:02.068Z,33.50
2022-10-24T14:12:34.441Z,35.92
2022-10-24T14:15:04.717Z,36.00
2022-10-24T14:17:37.462Z,31.48
2022-10-24T14:20:28.678Z,36.08
2022-10-24T14:22:59.200Z,37.55
2022-10-24T14:25:45.415Z,42.38
2022-10-24T14:28:21.994Z,35.20
2022-10-24T14:31:01.940Z,36.13
2022-10-24T14:33:33.737Z,33.78
2022-10-24T14:36:05.649Z,33.35
2022-10-24T14:38:36.140Z,40.97
2022-10-24T14:41:09.306Z,39.40
2022-10-24T14:43:45.798Z,35.42
2022-10-24T14:46:32.937Z,38.45
2022-10-24T14:49:41.581Z,34.28
2022-10-24T14:52:40.672Z,34.95
2022-10-24T14:55:26.323Z,38.97
2022-10-24T14:57:56.762Z,36.25
2022-10-24T15:00:28.573Z,38.67
2022-10-24T15:03:00.969Z,36.88
2022-10-24T15:05:36.526Z,39.92
2022-10-24T15:08:27.899Z,33.20
2022-10-24T15:11:08.472Z,35.03
2022-10-24T15:13:50.939Z,34.08
2022-10-24T15:16:36.986Z,39.65
2022-10-24T15:19:08.862Z,34.45
2022-10-24T15:21:43.272Z,35.67
2022-10-24T15:24:25.699Z,31.77
2022-10-24T15:27:12.273Z,33.22
2022-10-24T15:29:42.816Z,37.55
2022-10-24T15:32:13.226Z,36.10
2022-10-24T15:34:42.758Z,36.63
2022-10-24T15:37:24.085Z,37.58
2022-10-24T15:39:55.760Z,29.90
2022-10-24T15:42:25.385Z,32.97
2022-10-24T15:44:54.874Z,32.65
2022-10-24T15:47:25.635Z,31.95
2022-10-24T15:49:55.297Z,32.05
2022-10-24T15:52:24.867Z,27.70
2022-10-24T15:54:54.456Z,35.58
2022-10-24T15:57:24.105Z,38.00
2022-10-24T15:59:53.644Z,38.78
2022-10-24T16:02:25.911Z,34.88
2022-10-24T16:04:55.474Z,31.63
2022-10-24T16:07:25.418Z,43.28
2022-10-24T16:09:55.014Z,36.53
2022-10-24T16:12:24.522Z,33.80
2022-10-24T16:14:53.956Z,37.53
2022-10-24T16:17:23.483Z,41.78
2022-10-24T16:19:53.087Z,37.20
2022-10-24T16:22:22.699Z,32.28
2022-10-24T16:24:53.094Z,32.88
2022-10-24T16:27:22.946Z,34.40
2022-10-24T16:29:53.138Z,36.75
2022-10-24T16:32:23.062Z,32.35
2022-10-24T16:34:54.066Z,36.38
2022-10-24T16:37:23.852Z,30.23
2022-10-24T16:39:53.825Z,33.25
2022-10-24T16:42:25.697Z,34.30
2022-10-24T16:44:55.622Z,35.80
2022-10-24T16:47:25.524Z,30.42
2022-10-24T16:49:59.326Z,33.03
2022-10-24T16:52:30.510Z,33.30
2022-10-24T16:55:00.372Z,31.52
2022-10-24T16:57:30.216Z,31.70
2022-10-24T17:00:00.063Z,30.92
2022-10-24T17:02:30.172Z,32.15
2022-10-24T17:05:00.090Z,34.08
2022-10-24T17:07:30.231Z,28.27
2022-10-24T17:10:00.105Z,34.72
2022-10-24T17:12:30.078Z,27.15
2022-10-24T17:14:59.979Z,32.35
2022-10-24T17:17:29.969Z,26.30
2022-10-24T17:19:59.846Z,27.48
2022-10-24T17:22:30.086Z,27.92
2022-10-24T17:25:00.889Z,33.40
2022-10-24T17:27:31.022Z,28.58
2022-10-24T17:30:01.463Z,36.50
2022-10-24T17:32:31.516Z,28.48
2022-10-24T17:35:02.066Z,28.58
2022-10-24T17:38:03.760Z,24.23
2022-10-24T17:40:42.968Z,30.48
2022-10-24T17:43:27.249Z,32.38
2022-10-24T17:45:58.811Z,31.08
2022-10-24T17:48:28.753Z,33.83
2022-10-24T17:50:59.849Z,31.77
2022-10-24T17:53:29.672Z,29.17
2022-10-24T17:55:59.544Z,31.33
2022-10-24T17:58:29.539Z,39.92
2022-10-24T18:00:59.460Z,28.92
2022-10-24T18:03:30.478Z,27.27
2022-10-24T18:06:08.065Z,29.33
2022-10-24T18:08:37.914Z,33.60
2022-10-24T18:11:10.836Z,27.30
2022-10-24T18:13:41.701Z,27.85
2022-10-24T18:16:13.571Z,29.02
2022-10-24T18:18:44.779Z,33.30
2022-10-24T18:21:26.429Z,33.65
2022-10-24T18:23:57.519Z,30.02
2022-10-24T18:26:28.941Z,24.98
2022-10-24T18:28:59.704Z,28.33
2022-10-24T18:31:31.793Z,28.00
2022-10-24T18:34:06.310Z,29.25
2022-10-24T18:36:38.535Z,30.85
2022-10-24T18:39:08.745Z,29.45
2022-10-24T18:41:50.906Z,23.75
2022-10-24T18:44:32.469Z,25.98
2022-10-24T18:47:05.580Z,25.15
2022-10-24T18:49:38.182Z,30.15
2022-10-24T18:52:46.863Z,29.75
2022-10-24T18:55:24.401Z,27.00
2022-10-24T18:57:54.714Z,26.27
2022-10-24T19:00:26.977Z,23.17
2022-10-24T19:03:37.387Z,22.83
2022-10-24T19:06:27.647Z,24.35
2022-10-24T19:08:57.291Z,30.83
2022-10-24T19:11:26.908Z,26.20
2022-10-24T19:13:56.855Z,22.10
2022-10-24T19:16:30.265Z,27.45
2022-10-24T19:19:04.031Z,24.85
2022-10-24T19:21:33.567Z,25.00
2022-10-24T19:24:04.166Z,26.95
2022-10-24T19:26:34.044Z,30.60
2022-10-24T19:29:05.764Z,27.25
2022-10-24T19:31:36.097Z,28.23
2022-10-24T19:34:06.110Z,23.13
2022-10-24T19:36:36.009Z,25.67
2022-10-24T19:39:06.004Z,25.27
2022-10-24T19:41:37.160Z,26.85
2022-10-24T19:44:07.641Z,27.08
2022-10-24T19:46:37.533Z,31.65
2022-10-24T19:49:07.583Z,23.65
2022-10-24T19:51:37.498Z,25.33
2022-10-24T19:54:07.461Z,22.52
2022-10-24T19:56:37.327Z,23.95
2022-10-24T19:59:07.366Z,26.55
2022-10-24T20:01:39.291Z,22.50
2022-10-24T20:04:09.212Z,20.75
2022-10-24T20:06:39.082Z,30.83
2022-10-24T20:09:08.830Z,27.15
2022-10-24T20:11:38.793Z,25.10
2022-10-24T20:14:08.760Z,29.02
2022-10-24T20:16:38.697Z,31.08
2022-10-24T20:19:08.807Z,26.58
2022-10-24T20:21:39.228Z,26.40
2022-10-24T20:24:09.683Z,29.88
2022-10-24T20:26:39.377Z,25.13
2022-10-24T20:29:09.064Z,23.77
2022-10-24T20:31:41.208Z,23.08
2022-10-24T20:34:11.922Z,25.35
2022-10-24T20:36:49.738Z,25.30
2022-10-24T20:39:22.526Z,22.15
2022-10-24T20:41:54.160Z,31.45
2022-10-24T20:44:24.139Z,26.70
2022-10-24T20:46:56.965Z,25.63
2022-10-24T20:49:26.826Z,30.00
2022-10-24T20:51:56.325Z,28.02
2022-10-24T20:54:25.922Z,32.92
2022-10-24T20:56:55.490Z,34.40
2022-10-24T20:59:25.071Z,28.70
2022-10-24T21:01:54.709Z,26.35
2022-10-24T21:04:24.361Z,37.85
2022-10-24T21:06:53.851Z,30.05
2022-10-24T21:09:23.592Z,27.25
2022-10-24T21:11:53.068Z,28.23
2022-10-24T21:14:22.572Z,30.40
2022-10-24T21:16:52.172Z,32.53
2022-10-24T21:19:21.650Z,32.30
2022-10-24T21:21:51.106Z,30.52
2022-10-24T21:24:21.647Z,29.80
2022-10-24T21:26:51.999Z,25.27
2022-10-24T21:29:32.760Z,37.80
2022-10-24T21:32:03.827Z,28.67
2022-10-24T21:34:34.838Z,26.95
2022-10-24T21:37:06.396Z,27.42
2022-10-24T21:39:36.249Z,29.65
2022-10-24T21:42:07.116Z,24.25
2022-10-24T21:44:37.408Z,27.33
2022-10-24T21:47:07.292Z,25.75
2022-10-24T21:49:37.106Z,26.33
2022-10-24T21:52:07.112Z,28.73
2022-10-24T21:54:37.021Z,29.15
2022-10-24T21:57:06.984Z,26.13
2022-10-24T21:59:37.798Z,24.80
2022-10-24T22:02:07.814Z,25.40
2022-10-24T22:04:37.772Z,22.45
2022-10-24T22:07:08.858Z,26.30
2022-10-24T22:09:38.666Z,25.50
2022-10-24T22:12:08.712Z,22.77
2022-10-24T22:14:38.553Z,24.20
2022-10-24T22:17:08.648Z,23.42
2022-10-24T22:19:38.465Z,24.55
2022-10-24T22:22:08.335Z,25.73
2022-10-24T22:24:39.680Z,25.73
2022-10-24T22:27:09.422Z,25.00
2022-10-24T22:29:38.918Z,28.17
2022-10-24T22:32:08.726Z,25.08
2022-10-24T22:34:38.482Z,24.73
2022-10-24T22:37:29.587Z,25.00
2022-10-24T22:39:59.561Z,22.88
2022-10-24T22:42:29.239Z,23.42
2022-10-24T22:44:59.245Z,26.65
2022-10-24T22:47:58.808Z,24.83
2022-10-24T22:50:52.931Z,25.60
2022-10-24T22:53:28.410Z,25.85
2022-10-24T22:56:16.216Z,24.95
2022-10-24T22:58:47.657Z,23.52
2022-10-24T23:01:38.495Z,27.35
2022-10-24T23:04:45.407Z,31.35
2022-10-24T23:07:47.442Z,25.93
2022-10-24T23:10:24.620Z,24.73
2022-10-24T23:12:54.911Z,26.17
2022-10-24T23:15:24.776Z,25.25
2022-10-24T23:17:54.767Z,30.17
2022-10-24T23:20:43.255Z,27.10
2022-10-24T23:23:28.732Z,26.83
2022-10-24T23:26:10.376Z,26.90
2022-10-24T23:28:52.906Z,29.27
2022-10-24T23:31:22.948Z,27.27
2022-10-24T23:33:53.184Z,31.42
2022-10-24T23:36:26.624Z,30.83
2022-10-24T23:38:59.530Z,32.33
2022-10-24T23:41:29.722Z,29.02
2022-10-24T23:43:59.850Z,32.35
2022-10-24T23:46:39.329Z,30.38
2022-10-24T23:49:41.819Z,40.20
2022-10-24T23:52:48.558Z,33.83
2022-10-24T23:55:19.775Z,32.80
2022-10-24T23:57:49.666Z,34.25
